Time;durP1;ratioP1;P1;durP2;ratioP2;P2;SDS_P1;SDS_P2;PMS_P1;PMS_P2;Temp;Humidity;BMP_temperature;BMP_pressure;BME280_temperature;BME280_humidity;BME280_pressure;Samples;Min_cycle;Max_cycle;Signal;HPM_P1;HPM_P2
2022/09/11 00:01:14;;;;;;;1.48;0.30;;;14.30;99.90;;;;;;5035301;28;20037;-86
2022/09/11 00:03:59;;;;;;;0.60;0.20;;;14.30;99.90;;;;;;5047344;28;20029;-85
2022/09/11 00:10:24;;;;;;;0.90;0.20;;;14.40;99.90;;;;;;5038116;28;20029;-86
2022/09/11 00:16:54;;;;;;;0.65;0.20;;;14.40;99.90;;;;;;5001669;28;20029;-86
2022/09/11 00:23:06;;;;;;;0.38;0.15;;;14.30;99.90;;;;;;5027476;28;20065;-85
2022/09/11 00:25:55;;;;;;;;;;;14.40;99.90;;;;;;5017122;28;20076;-86
2022/09/11 00:32:15;;;;;;;0.70;0.20;;;14.40;99.90;;;;;;5020976;28;20026;-85
2022/09/11 00:35:00;;;;;;;0.80;0.20;;;14.40;99.90;;;;;;5029613;28;20037;-85
2022/09/11 00:41:34;;;;;;;0.30;0.10;;;14.30;99.90;;;;;;5039877;28;20509;-86
2022/09/11 00:47:23;;;;;;;0.88;0.20;;;14.40;99.90;;;;;;5032474;28;20037;-85
2022/09/11 00:50:06;;;;;;;0.20;0.10;;;14.40;99.90;;;;;;5042177;28;20024;-86
2022/09/11 00:53:28;;;;;;;;;;;;;;;;;;;;;
2022/09/11 00:59:40;;;;;;;3.20;0.35;;;14.30;99.90;;;;;;5019186;28;20034;-86
2022/09/11 01:09:13;;;;;;;1.30;0.32;;;14.40;99.90;;;;;;5027267;28;20024;-86
2022/09/11 01:12:23;;;;;;;0.73;0.10;;;14.40;99.90;;;;;;5026750;28;20489;-86
2022/09/11 01:15:34;;;;;;;1.20;0.40;;;14.50;99.90;;;;;;5041791;28;20029;-87
2022/09/11 01:18:05;;;;;;;0.10;0.10;;;14.40;99.90;;;;;;5039650;28;20489;-86
2022/09/11 01:20:58;;;;;;;0.47;0.20;;;14.40;99.90;;;;;;5041176;28;20057;-86
2022/09/11 01:23:50;;;;;;;2.03;0.22;;;14.40;99.90;;;;;;5043541;28;20021;-87
2022/09/11 01:26:36;;;;;;;1.38;0.20;;;14.40;99.90;;;;;;5012520;28;20057;-87
2022/09/11 01:29:26;;;;;;;0.90;0.30;;;14.30;99.90;;;;;;5039664;28;20029;-87
2022/09/11 01:32:15;;;;;;;0.30;0.10;;;14.30;99.90;;;;;;5037704;28;20112;-87
2022/09/11 01:34:57;;;;;;;0.70;0.25;;;14.30;99.90;;;;;;5029970;28;20021;-87
2022/09/11 01:38:24;;;;;;;0.68;0.30;;;14.20;99.90;;;;;;5026911;28;20029;-86
2022/09/11 01:41:01;;;;;;;1.00;0.40;;;14.20;99.90;;;;;;4971657;28;20448;-86
2022/09/11 01:43:44;;;;;;;0.88;0.30;;;14.20;99.90;;;;;;4974676;28;20051;-86
2022/09/11 01:46:23;;;;;;;1.23;0.30;;;14.20;99.90;;;;;;5020571;28;20040;-86
2022/09/11 01:49:01;;;;;;;0.60;0.28;;;14.20;99.90;;;;;;5030827;28;20026;-86
2022/09/11 01:51:51;;;;;;;0.80;0.22;;;14.20;99.90;;;;;;5044127;28;20029;-87
2022/09/11 01:54:38;;;;;;;;;;;;;;;;;;;;;
2022/09/11 01:57:58;;;;;;;;;;;;;;;;;;;;;
2022/09/11 02:00:48;;;;;;;0.30;0.10;;;14.30;99.90;;;;;;5040396;28;20025;-86
2022/09/11 02:03:43;;;;;;;0.75;0.30;;;14.20;99.90;;;;;;5042020;28;20026;-86
2022/09/11 02:06:24;;;;;;;0.55;0.30;;;14.20;99.90;;;;;;5038063;28;20183;-87
2022/09/11 02:09:29;;;;;;;0.77;0.30;;;14.20;99.90;;;;;;5032397;28;20527;-87
2022/09/11 02:12:02;;;;;;;2.75;0.35;;;14.20;99.90;;;;;;5032986;28;20017;-87
2022/09/11 02:14:54;;;;;;;0.75;0.30;;;14.20;99.90;;;;;;5026428;28;20049;-87
2022/09/11 02:17:30;;;;;;;0.40;0.20;;;14.30;99.90;;;;;;5033280;28;20113;-87
2022/09/11 02:20:08;;;;;;;2.03;0.40;;;14.20;99.90;;;;;;5043876;28;20520;-87
2022/09/11 02:22:36;;;;;;;0.38;0.28;;;14.20;99.90;;;;;;5037120;28;20031;-87
2022/09/11 02:25:10;;;;;;;0.68;0.20;;;14.30;99.90;;;;;;5041274;28;20021;-87
2022/09/11 02:27:41;;;;;;;1.95;0.30;;;14.10;99.90;;;;;;5030205;28;20041;-86
2022/09/11 02:30:11;;;;;;;0.20;0.17;;;14.20;99.90;;;;;;5026121;28;20022;-87
2022/09/11 02:32:41;;;;;;;0.50;0.20;;;14.30;99.90;;;;;;5037309;28;20021;-87
2022/09/11 02:35:15;;;;;;;0.40;0.20;;;14.20;99.90;;;;;;5041868;28;20037;-87
2022/09/11 02:37:51;;;;;;;3.28;0.40;;;14.20;99.90;;;;;;5037083;28;20037;-87
2022/09/11 02:40:37;;;;;;;0.80;0.30;;;14.20;99.90;;;;;;5045255;28;20041;-86
2022/09/11 02:43:12;;;;;;;1.48;0.30;;;14.20;99.90;;;;;;5036362;28;20029;-87
2022/09/11 02:46:12;;;;;;;0.30;0.20;;;14.20;99.90;;;;;;5032366;28;20028;-86
2022/09/11 02:49:01;;;;;;;0.63;0.20;;;14.30;99.90;;;;;;5048476;28;20469;-86
2022/09/11 02:51:37;;;;;;;0.63;0.32;;;14.30;99.90;;;;;;5039408;28;20422;-86
2022/09/11 02:54:23;;;;;;;1.45;0.32;;;14.30;99.90;;;;;;5049928;28;20025;-86
2022/09/11 02:57:03;;;;;;;3.58;1.10;;;14.30;99.90;;;;;;5041531;28;20025;-86
2022/09/11 02:59:46;;;;;;;1.50;0.35;;;14.20;99.90;;;;;;5032510;28;20129;-86
2022/09/11 03:02:17;;;;;;;0.90;0.30;;;14.20;99.90;;;;;;5045072;28;20029;-87
2022/09/11 03:04:45;;;;;;;0.30;0.20;;;14.20;99.90;;;;;;5040663;28;20030;-86
2022/09/11 03:07:19;;;;;;;0.93;0.30;;;14.20;99.90;;;;;;5043981;28;20060;-87
2022/09/11 03:09:44;;;;;;;0.93;0.50;;;14.30;99.90;;;;;;5023828;28;20118;-86
2022/09/11 03:12:10;;;;;;;1.40;0.35;;;14.20;99.90;;;;;;5043841;28;20501;-87
2022/09/11 03:14:43;;;;;;;3.17;0.30;;;14.20;99.90;;;;;;5046518;28;20056;-86
2022/09/11 03:17:09;;;;;;;4.38;0.85;;;14.30;99.90;;;;;;5045351;28;20020;-86
2022/09/11 03:19:41;;;;;;;1.48;0.50;;;14.40;99.90;;;;;;5043450;28;20042;-87
2022/09/11 03:22:10;;;;;;;1.33;0.40;;;14.30;99.90;;;;;;5046815;28;20048;-87
2022/09/11 03:24:36;;;;;;;1.08;0.32;;;14.30;99.90;;;;;;5041030;28;20033;-87
2022/09/11 03:27:01;;;;;;;0.85;0.40;;;14.30;99.90;;;;;;5041718;28;20432;-86
2022/09/11 03:29:27;;;;;;;1.83;0.45;;;14.30;99.90;;;;;;5049890;28;20021;-86
2022/09/11 03:31:56;;;;;;;0.98;0.30;;;14.30;99.90;;;;;;5041848;28;20080;-87
2022/09/11 03:34:21;;;;;;;0.57;0.20;;;14.30;99.90;;;;;;5036484;28;20021;-86
2022/09/11 03:36:51;;;;;;;0.80;0.38;;;14.30;99.90;;;;;;5039391;28;20028;-86
2022/09/11 03:39:17;;;;;;;0.65;0.25;;;14.40;99.90;;;;;;5026701;28;20516;-87
2022/09/11 03:41:50;;;;;;;1.30;0.50;;;14.20;99.90;;;;;;5039576;28;20034;-88
2022/09/11 03:44:20;;;;;;;2.53;0.47;;;14.30;99.90;;;;;;5038898;28;20021;-87
2022/09/11 03:46:48;;;;;;;0.77;0.30;;;14.30;99.90;;;;;;5045637;28;20029;-86
2022/09/11 03:49:14;;;;;;;0.77;0.40;;;14.30;99.90;;;;;;5035423;28;20021;-87
2022/09/11 03:51:42;;;;;;;1.50;0.40;;;14.30;99.90;;;;;;5042579;28;20363;-86
2022/09/11 03:54:08;;;;;;;0.63;0.35;;;14.30;99.90;;;;;;5048379;28;20017;-87
2022/09/11 03:56:39;;;;;;;0.75;0.38;;;14.10;99.90;;;;;;5048939;28;20031;-87
2022/09/11 03:59:13;;;;;;;2.17;0.40;;;14.50;99.90;;;;;;5042075;28;20033;-87
2022/09/11 04:01:40;;;;;;;1.08;0.45;;;14.30;99.90;;;;;;5033560;28;20319;-86
2022/09/11 04:04:06;;;;;;;0.65;0.30;;;14.30;99.90;;;;;;5037782;28;20046;-87
2022/09/11 04:06:38;;;;;;;1.42;0.32;;;14.30;99.90;;;;;;5047206;28;20068;-86
2022/09/11 04:09:07;;;;;;;0.63;0.30;;;14.30;99.90;;;;;;5033083;28;20088;-86
2022/09/11 04:11:37;;;;;;;0.88;0.50;;;14.30;99.90;;;;;;5043150;28;20125;-87
2022/09/11 04:14:06;;;;;;;1.52;0.68;;;14.20;99.90;;;;;;5042495;28;20017;-86
2022/09/11 04:16:33;;;;;;;3.67;0.65;;;14.20;99.90;;;;;;5042406;28;20025;-86
2022/09/11 04:19:02;;;;;;;1.00;0.40;;;14.20;99.90;;;;;;5041304;28;21111;-87
2022/09/11 04:21:28;;;;;;;3.47;0.80;;;14.20;99.90;;;;;;5032171;28;20137;-86
2022/09/11 04:23:59;;;;;;;0.75;0.40;;;14.20;99.90;;;;;;5035896;28;20022;-87
2022/09/11 04:26:26;;;;;;;0.93;0.40;;;14.20;99.90;;;;;;5031751;28;20064;-86
2022/09/11 04:28:52;;;;;;;1.00;0.50;;;14.20;99.90;;;;;;5037388;28;20639;-87
2022/09/11 04:31:19;;;;;;;1.33;0.40;;;14.20;99.90;;;;;;5040104;28;20104;-86
2022/09/11 04:33:45;;;;;;;1.25;0.50;;;14.20;99.90;;;;;;5035922;28;20474;-86
2022/09/11 04:36:13;;;;;;;1.75;0.85;;;14.20;99.90;;;;;;5037727;28;20025;-86
2022/09/11 04:38:39;;;;;;;1.60;0.68;;;14.20;99.90;;;;;;5039859;28;20029;-87
2022/09/11 04:41:06;;;;;;;3.33;0.60;;;14.20;99.90;;;;;;5041557;28;20031;-87
2022/09/11 04:43:35;;;;;;;2.63;0.90;;;14.30;99.90;;;;;;5041147;28;20055;-87
2022/09/11 04:46:06;;;;;;;1.95;0.80;;;14.20;99.90;;;;;;5039188;28;20397;-86
2022/09/11 04:48:33;;;;;;;1.80;0.83;;;14.30;99.90;;;;;;5042595;28;20017;-87
2022/09/11 04:51:28;;;;;;;2.25;0.85;;;14.40;99.90;;;;;;5033509;28;20280;-87
2022/09/11 04:53:58;;;;;;;3.65;0.90;;;14.30;99.90;;;;;;5041488;28;20017;-86
2022/09/11 04:56:25;;;;;;;2.05;0.85;;;14.30;99.90;;;;;;5067697;23;20014;-83
2022/09/11 04:58:56;;;;;;;2.88;1.05;;;14.30;99.90;;;;;;5016155;28;20176;-84
2022/09/11 05:01:24;;;;;;;3.42;1.30;;;14.30;99.90;;;;;;5016454;28;20014;-84
2022/09/11 05:03:49;;;;;;;2.55;0.98;;;14.30;99.90;;;;;;5007135;28;20022;-83
2022/09/11 05:06:15;;;;;;;2.20;1.00;;;14.40;99.90;;;;;;5014702;28;20032;-84
2022/09/11 05:08:45;;;;;;;2.63;0.98;;;14.40;99.90;;;;;;5018096;28;20025;-84
2022/09/11 05:11:13;;;;;;;4.13;1.08;;;14.50;99.90;;;;;;5005146;28;20379;-84
2022/09/11 05:13:39;;;;;;;2.65;1.38;;;14.60;99.90;;;;;;5027595;28;20475;-83
2022/09/11 05:16:08;;;;;;;2.63;1.23;;;14.40;99.90;;;;;;5013935;28;20548;-84
2022/09/11 05:18:34;;;;;;;3.85;1.20;;;14.50;99.90;;;;;;5013562;28;20461;-84
2022/09/11 05:21:02;;;;;;;4.18;1.30;;;14.50;99.90;;;;;;5028299;28;20030;-84
2022/09/11 05:23:30;;;;;;;3.78;1.25;;;14.50;99.90;;;;;;5006546;28;20550;-86
2022/09/11 05:25:57;;;;;;;2.05;0.90;;;14.70;99.90;;;;;;5027327;28;20021;-84
2022/09/11 05:28:23;;;;;;;2.95;1.17;;;14.50;99.90;;;;;;5030663;28;20100;-84
2022/09/11 05:30:48;;;;;;;4.32;0.93;;;14.60;99.90;;;;;;5010849;28;20041;-83
2022/09/11 05:33:14;;;;;;;3.63;1.23;;;14.60;99.90;;;;;;5013764;28;20057;-84
2022/09/11 05:35:40;;;;;;;3.45;1.55;;;14.70;99.90;;;;;;5025720;28;20022;-84
2022/09/11 05:38:05;;;;;;;4.22;2.25;;;14.70;99.90;;;;;;5010500;28;20022;-84
2022/09/11 05:40:31;;;;;;;1.70;0.82;;;14.60;99.90;;;;;;5002090;28;20035;-84
2022/09/11 05:42:56;;;;;;;3.88;1.50;;;14.70;99.90;;;;;;5020668;28;20033;-84
2022/09/11 05:45:23;;;;;;;2.50;1.38;;;14.60;99.90;;;;;;5023150;28;20053;-84
2022/09/11 05:47:49;;;;;;;2.70;1.15;;;14.70;99.90;;;;;;5021166;28;20018;-83
2022/09/11 05:50:15;;;;;;;5.65;1.42;;;14.60;99.90;;;;;;5027028;28;20087;-84
2022/09/11 05:52:40;;;;;;;2.60;1.33;;;14.70;99.90;;;;;;5013057;28;20104;-84
2022/09/11 05:55:06;;;;;;;3.80;1.77;;;14.70;99.90;;;;;;5012589;28;20033;-84
2022/09/11 05:57:32;;;;;;;3.58;1.77;;;14.60;99.90;;;;;;5026612;28;20037;-84
2022/09/11 05:59:57;;;;;;;3.47;1.63;;;14.70;99.90;;;;;;5028466;28;20037;-84
2022/09/11 06:02:23;;;;;;;4.07;1.50;;;14.80;99.90;;;;;;5029022;28;20036;-84
2022/09/11 06:04:49;;;;;;;4.03;1.83;;;14.70;99.90;;;;;;5026625;28;20033;-84
2022/09/11 06:07:14;;;;;;;3.63;1.63;;;14.80;99.90;;;;;;5008157;28;20083;-84
2022/09/11 06:09:40;;;;;;;3.47;1.58;;;14.90;99.90;;;;;;5032221;28;20104;-84
2022/09/11 06:12:06;;;;;;;2.40;1.40;;;14.90;99.90;;;;;;5017931;28;20087;-84
2022/09/11 06:14:31;;;;;;;3.58;1.38;;;15.00;99.90;;;;;;5017672;28;20021;-84
2022/09/11 06:16:57;;;;;;;2.80;1.25;;;14.90;99.90;;;;;;5006916;28;20457;-84
2022/09/11 06:19:22;;;;;;;4.47;1.55;;;15.20;99.90;;;;;;5030624;28;20024;-85
2022/09/11 06:21:49;;;;;;;3.53;1.45;;;15.00;99.90;;;;;;5008358;28;20040;-85
2022/09/11 06:24:14;;;;;;;5.40;1.48;;;15.10;99.90;;;;;;5010335;28;20083;-85
2022/09/11 06:26:40;;;;;;;3.25;1.40;;;15.10;99.90;;;;;;5030506;28;20025;-85
2022/09/11 06:29:06;;;;;;;2.72;1.42;;;15.10;99.90;;;;;;5030748;28;20013;-85
2022/09/11 06:31:32;;;;;;;3.15;1.70;;;15.10;99.90;;;;;;5009796;28;20071;-85
2022/09/11 06:33:57;;;;;;;3.83;1.55;;;15.20;99.90;;;;;;5011311;28;20025;-85
2022/09/11 06:36:31;;;;;;;2.67;1.40;;;15.20;99.90;;;;;;5021506;28;20625;-85
2022/09/11 06:38:57;;;;;;;2.55;1.38;;;15.40;99.90;;;;;;5024537;28;20025;-85
2022/09/11 06:41:24;;;;;;;5.18;1.95;;;15.30;99.90;;;;;;5006814;28;20068;-85
2022/09/11 06:43:51;;;;;;;4.60;1.80;;;15.20;99.90;;;;;;5005626;28;20422;-85
2022/09/11 06:46:19;;;;;;;3.50;1.58;;;15.20;99.90;;;;;;5010288;28;20029;-85
2022/09/11 06:48:47;;;;;;;4.50;1.65;;;15.20;99.90;;;;;;5008150;28;20018;-85
2022/09/11 06:51:16;;;;;;;4.43;1.48;;;15.30;99.90;;;;;;5009160;28;20018;-85
2022/09/11 06:53:42;;;;;;;3.22;1.40;;;15.30;99.90;;;;;;4999438;28;20032;-85
2022/09/11 06:56:13;;;;;;;4.00;1.60;;;15.30;99.90;;;;;;5012373;28;20039;-85
2022/09/11 06:58:39;;;;;;;3.63;1.80;;;15.10;99.90;;;;;;5027700;28;20038;-85
2022/09/11 07:01:07;;;;;;;4.47;1.65;;;15.30;99.90;;;;;;5012707;28;20060;-84
2022/09/11 07:03:33;;;;;;;4.03;1.90;;;15.20;99.90;;;;;;5018512;28;20521;-85
2022/09/11 07:05:59;;;;;;;3.50;1.70;;;15.40;99.90;;;;;;5018062;28;20065;-85
2022/09/11 07:08:26;;;;;;;4.57;1.90;;;15.50;99.90;;;;;;5029916;28;20029;-85
2022/09/11 07:10:52;;;;;;;3.33;1.83;;;15.60;99.90;;;;;;5029929;28;20014;-85
2022/09/11 07:13:18;;;;;;;5.60;1.95;;;15.50;99.90;;;;;;5011733;28;20021;-87
2022/09/11 07:15:46;;;;;;;4.07;1.88;;;15.50;99.90;;;;;;5029557;28;20548;-86
2022/09/11 07:18:12;;;;;;;7.35;1.70;;;15.60;99.90;;;;;;5031156;28;20036;-87
2022/09/11 07:20:40;;;;;;;2.83;1.63;;;15.70;99.90;;;;;;5018483;28;20037;-86
2022/09/11 07:23:06;;;;;;;5.10;1.60;;;15.70;99.90;;;;;;5020422;28;20029;-86
2022/09/11 07:25:37;;;;;;;3.78;2.05;;;15.70;99.90;;;;;;5044279;28;20022;-87
2022/09/11 07:28:03;;;;;;;3.33;1.67;;;15.80;99.90;;;;;;5021055;28;20081;-86
2022/09/11 07:30:28;;;;;;;4.43;1.65;;;15.80;99.90;;;;;;5034414;28;20080;-87
2022/09/11 07:32:54;;;;;;;3.42;1.83;;;15.80;99.90;;;;;;5019912;28;20022;-86
2022/09/11 07:35:20;;;;;;;3.70;1.90;;;15.70;99.90;;;;;;5027998;28;20025;-87
2022/09/11 07:37:47;;;;;;;5.35;1.90;;;15.70;99.90;;;;;;5013666;28;20509;-86
2022/09/11 07:40:13;;;;;;;4.63;1.95;;;16.00;99.90;;;;;;5015001;28;20033;-86
2022/09/11 07:42:39;;;;;;;4.15;1.73;;;15.90;99.90;;;;;;5030834;28;20029;-86
2022/09/11 07:45:05;;;;;;;3.50;2.08;;;16.00;99.90;;;;;;5015492;28;20032;-86
2022/09/11 07:47:32;;;;;;;4.70;2.10;;;16.10;99.90;;;;;;5024003;28;20029;-86
2022/09/11 07:49:58;;;;;;;6.60;2.40;;;16.00;99.90;;;;;;5012405;28;20163;-87
2022/09/11 07:52:24;;;;;;;3.58;1.80;;;16.20;99.90;;;;;;5010025;28;20112;-86
2022/09/11 07:54:51;;;;;;;3.75;1.67;;;16.20;99.90;;;;;;5009010;28;20021;-86
2022/09/11 07:57:18;;;;;;;3.92;1.45;;;16.20;99.90;;;;;;5013531;28;20561;-87
2022/09/11 07:59:45;;;;;;;3.42;1.88;;;16.10;99.90;;;;;;5013505;28;20056;-86
2022/09/11 08:02:11;;;;;;;4.25;2.05;;;16.40;99.90;;;;;;5012552;28;20122;-87
2022/09/11 08:04:40;;;;;;;3.10;1.67;;;16.20;99.90;;;;;;5013404;28;20048;-87
2022/09/11 08:07:05;;;;;;;4.28;2.10;;;16.10;99.90;;;;;;5006485;28;20029;-87
2022/09/11 08:09:34;;;;;;;3.83;2.15;;;16.20;99.90;;;;;;5011693;28;20020;-86
2022/09/11 08:12:00;;;;;;;3.88;1.90;;;16.20;99.90;;;;;;5011627;28;20432;-87
2022/09/11 08:14:26;;;;;;;3.97;1.75;;;16.10;99.90;;;;;;5012715;28;20026;-86
2022/09/11 08:16:53;;;;;;;3.97;1.90;;;16.10;99.90;;;;;;5012913;28;21291;-87
2022/09/11 08:19:21;;;;;;;4.07;1.92;;;16.20;99.90;;;;;;5012605;28;20032;-86
2022/09/11 08:21:49;;;;;;;4.15;1.90;;;16.30;99.90;;;;;;5011135;28;20026;-87
2022/09/11 08:24:16;;;;;;;3.25;1.65;;;16.50;99.90;;;;;;4997523;28;20037;-86
2022/09/11 08:26:42;;;;;;;3.53;1.77;;;16.50;99.90;;;;;;5029970;28;20026;-86
2022/09/11 08:29:09;;;;;;;3.83;1.90;;;16.60;99.90;;;;;;5004981;28;20118;-87
2022/09/11 08:31:36;;;;;;;3.65;1.88;;;16.60;99.90;;;;;;5011801;28;20207;-86
2022/09/11 08:34:02;;;;;;;4.45;2.00;;;16.50;99.90;;;;;;5029405;28;20013;-87
2022/09/11 08:36:28;;;;;;;3.17;1.70;;;16.70;99.90;;;;;;5009709;28;20028;-86
2022/09/11 08:38:54;;;;;;;3.92;1.90;;;16.70;99.90;;;;;;5005957;28;20191;-86
2022/09/11 08:41:49;;;;;;;2.85;1.52;;;16.70;99.90;;;;;;5007129;28;20359;-86
2022/09/11 08:44:43;;;;;;;3.75;1.85;;;17.00;99.90;;;;;;4999492;28;20021;-87
2022/09/11 08:47:17;;;;;;;4.18;2.05;;;17.60;99.90;;;;;;5010367;28;20478;-87
2022/09/11 08:50:02;;;;;;;3.65;1.85;;;18.00;99.90;;;;;;5013247;28;20021;-86
2022/09/11 08:52:28;;;;;;;3.58;1.65;;;18.30;99.90;;;;;;5005437;28;20039;-86
2022/09/11 08:54:58;;;;;;;3.22;1.80;;;18.60;99.90;;;;;;5026834;28;20044;-86
2022/09/11 08:57:57;;;;;;;3.53;1.70;;;18.80;99.90;;;;;;5028206;28;20033;-86
2022/09/11 09:00:30;;;;;;;4.25;2.03;;;18.60;99.90;;;;;;4975993;28;20033;-85
2022/09/11 09:03:12;;;;;;;3.75;2.00;;;18.50;99.90;;;;;;5029006;28;20028;-85
2022/09/11 09:05:44;;;;;;;3.15;1.42;;;18.50;99.90;;;;;;5011254;28;20026;-85
2022/09/11 09:08:36;;;;;;;3.75;1.45;;;18.30;99.90;;;;;;5008554;28;20490;-85
2022/09/11 09:11:42;;;;;;;3.83;1.88;;;18.10;99.90;;;;;;5025378;28;20564;-86
2022/09/11 09:14:45;;;;;;;3.60;1.58;;;17.90;99.90;;;;;;4991455;28;20033;-85
2022/09/11 09:17:50;;;;;;;4.05;1.80;;;17.60;99.90;;;;;;5004368;28;20448;-85
2022/09/11 09:20:22;;;;;;;3.40;1.70;;;17.60;99.90;;;;;;5024398;28;20063;-84
2022/09/11 09:22:53;;;;;;;3.00;1.50;;;17.90;99.90;;;;;;5025427;28;20025;-85
2022/09/11 09:25:24;;;;;;;3.03;1.33;;;18.10;99.90;;;;;;5005320;28;20025;-85
2022/09/11 09:28:06;;;;;;;2.90;1.20;;;18.30;99.90;;;;;;5003467;28;20104;-85
2022/09/11 09:30:48;;;;;;;2.33;1.25;;;18.60;99.90;;;;;;5025905;28;20013;-85
2022/09/11 09:33:30;;;;;;;2.13;0.85;;;18.90;99.90;;;;;;5028884;28;20020;-85
2022/09/11 09:35:58;;;;;;;;;;;19.10;99.90;;;;;;4997317;28;20066;-84
2022/09/11 09:38:30;;;;;;;2.03;1.05;;;19.20;99.90;;;;;;5026107;28;19912;-85
2022/09/11 09:41:06;;;;;;;;;;;19.30;99.90;;;;;;5031196;28;20028;-85
2022/09/11 09:43:42;;;;;;;2.10;1.08;;;19.40;99.90;;;;;;5023953;28;19905;-85
2022/09/11 09:46:18;;;;;;;2.22;0.80;;;19.60;99.90;;;;;;5012858;28;20083;-84
2022/09/11 09:48:44;;;;;;;2.03;0.93;;;19.60;99.90;;;;;;5026191;28;20018;-85
2022/09/11 09:51:12;;;;;;;1.77;0.88;;;19.60;99.90;;;;;;5027113;28;20105;-84
2022/09/11 09:53:50;;;;;;;2.90;1.08;;;19.30;99.90;;;;;;5008104;28;20035;-84
2022/09/11 09:56:18;;;;;;;1.95;1.05;;;19.30;99.90;;;;;;5027085;28;20027;-85
2022/09/11 09:58:53;;;;;;;2.58;1.10;;;19.20;99.90;;;;;;5023961;28;20034;-85
2022/09/11 10:01:45;;;;;;;2.25;1.00;;;19.10;99.90;;;;;;5029730;28;20045;-84
2022/09/11 10:04:19;;;;;;;2.05;1.00;;;19.30;99.90;;;;;;5002838;28;20026;-85
2022/09/11 10:06:46;;;;;;;2.50;1.38;;;19.70;99.90;;;;;;5020523;28;20025;-85
2022/09/11 10:09:24;;;;;;;2.58;1.23;;;19.70;99.90;;;;;;5012853;28;20033;-85
2022/09/11 10:12:01;;;;;;;2.42;1.10;;;19.60;99.90;;;;;;5023290;28;20020;-84
2022/09/11 10:14:31;;;;;;;3.88;1.45;;;19.60;99.90;;;;;;5026966;28;21624;-84
2022/09/11 10:17:01;;;;;;;3.58;1.20;;;19.50;99.90;;;;;;5004752;28;20056;-84
2022/09/11 10:19:39;;;;;;;2.55;1.00;;;19.40;99.90;;;;;;5005824;28;20025;-84
2022/09/11 10:22:26;;;;;;;3.72;1.05;;;19.40;99.90;;;;;;5000946;28;20387;-83
2022/09/11 10:25:11;;;;;;;2.22;1.00;;;19.20;99.90;;;;;;5009568;28;20021;-84
2022/09/11 10:27:44;;;;;;;2.53;1.33;;;19.40;99.90;;;;;;5026924;28;20026;-84
2022/09/11 10:30:28;;;;;;;2.25;0.90;;;19.60;99.90;;;;;;5026500;28;20022;-84
2022/09/11 10:32:55;;;;;;;2.83;1.13;;;19.80;99.90;;;;;;5001603;28;20475;-83
2022/09/11 10:35:25;;;;;;;2.45;0.95;;;19.80;99.90;;;;;;5029355;28;20021;-83
2022/09/11 10:38:22;;;;;;;2.88;1.42;;;19.80;99.90;;;;;;5014167;28;20029;-83
2022/09/11 10:40:57;;;;;;;2.38;1.05;;;19.80;99.90;;;;;;5014069;28;20033;-84
2022/09/11 10:43:30;;;;;;;3.03;1.50;;;19.80;99.90;;;;;;5017230;28;20026;-84
2022/09/11 10:46:21;;;;;;;2.97;1.20;;;19.70;99.90;;;;;;5005897;28;20025;-82
2022/09/11 10:48:54;;;;;;;2.40;1.25;;;19.60;99.90;;;;;;5011393;28;20486;-82
2022/09/11 10:51:23;;;;;;;2.92;1.40;;;19.60;99.90;;;;;;5031164;28;20088;-83
2022/09/11 10:54:13;;;;;;;3.00;1.48;;;19.50;99.90;;;;;;5008549;28;20117;-82
2022/09/11 10:59:14;;;;;;;4.22;1.35;;;19.70;99.90;;;;;;4980356;28;20050;-84
2022/09/11 11:01:39;;;;;;;4.38;1.70;;;19.70;99.90;;;;;;5005249;28;20022;-85
2022/09/11 11:04:10;;;;;;;3.83;1.70;;;19.70;99.90;;;;;;4987033;28;20154;-86
2022/09/11 11:06:44;;;;;;;2.70;1.17;;;19.90;99.90;;;;;;5000479;28;20409;-85
2022/09/11 11:09:28;;;;;;;3.55;1.70;;;20.20;99.90;;;;;;4974764;28;20394;-85
2022/09/11 11:12:17;;;;;;;3.33;1.40;;;20.70;99.90;;;;;;4976112;28;20022;-85
2022/09/11 11:15:27;;;;;;;4.03;1.85;;;21.30;99.90;;;;;;4975490;28;20019;-85
2022/09/11 11:18:41;;;;;;;3.60;1.50;;;21.70;99.90;;;;;;4959602;28;20492;-85
2022/09/11 11:21:30;;;;;;;2.70;1.30;;;22.00;99.90;;;;;;4972883;28;20511;-85
2022/09/11 11:24:00;;;;;;;3.45;0.93;;;21.70;99.90;;;;;;4975542;28;20427;-84
2022/09/11 11:26:41;;;;;;;3.55;1.10;;;21.80;99.90;;;;;;4977121;28;20140;-84
2022/09/11 11:29:36;;;;;;;3.22;1.27;;;21.40;99.90;;;;;;4997552;28;20038;-84
2022/09/11 11:32:26;;;;;;;2.55;1.13;;;21.10;99.90;;;;;;4988838;28;20050;-83
2022/09/11 11:35:11;;;;;;;3.42;1.40;;;20.80;99.90;;;;;;5020775;28;20023;-83
2022/09/11 11:37:41;;;;;;;3.15;1.25;;;20.60;99.90;;;;;;4987223;28;20042;-84
2022/09/11 11:40:49;;;;;;;3.03;1.50;;;20.40;99.90;;;;;;5005167;28;20034;-84
2022/09/11 11:43:18;;;;;;;3.88;1.88;;;20.20;99.90;;;;;;4984847;28;20066;-83
2022/09/11 11:45:51;;;;;;;3.70;1.60;;;20.10;99.90;;;;;;5012352;28;20034;-84
2022/09/11 11:48:52;;;;;;;3.28;1.48;;;20.00;99.90;;;;;;4979205;28;20023;-84
2022/09/11 11:51:20;;;;;;;2.60;1.13;;;19.90;99.90;;;;;;5011185;28;20027;-84
2022/09/11 11:54:00;;;;;;;2.50;1.38;;;20.20;99.90;;;;;;4981866;28;20018;-84
2022/09/11 11:57:13;;;;;;;4.45;1.70;;;20.50;99.90;;;;;;4982788;28;20033;-84
2022/09/11 11:59:54;;;;;;;2.83;1.08;;;20.90;99.90;;;;;;4959527;28;20035;-84
2022/09/11 12:02:26;;;;;;;2.30;1.20;;;21.50;99.90;;;;;;4944313;29;20507;-83
2022/09/11 12:05:12;;;;;;;2.60;1.50;;;21.80;99.90;;;;;;4963971;28;20051;-85
2022/09/11 12:07:40;;;;;;;2.90;1.35;;;22.00;99.90;;;;;;4981101;28;20388;-84
2022/09/11 12:10:17;;;;;;;3.33;1.30;;;22.40;99.90;;;;;;4997271;28;20439;-84
2022/09/11 12:12:49;;;;;;;3.17;1.40;;;22.60;99.90;;;;;;4996032;28;20026;-84
2022/09/11 12:15:28;;;;;;;2.08;1.13;;;22.80;99.90;;;;;;4974592;28;20033;-84
2022/09/11 12:18:16;;;;;;;2.30;0.95;;;22.70;99.90;;;;;;4977696;28;20023;-84
2022/09/11 12:20:44;;;;;;;2.45;1.02;;;21.80;99.90;;;;;;4970167;28;20034;-84
2022/09/11 12:23:28;;;;;;;2.58;1.15;;;21.70;99.90;;;;;;4980236;28;20037;-84
2022/09/11 12:26:09;;;;;;;2.85;1.02;;;21.40;99.90;;;;;;4974557;28;20136;-85
2022/09/11 12:28:36;;;;;;;1.83;0.77;;;21.10;99.90;;;;;;5009680;28;20265;-85
2022/09/11 12:31:07;;;;;;;2.50;1.17;;;21.10;99.90;;;;;;4978540;28;20025;-85
2022/09/11 12:33:47;;;;;;;2.50;1.10;;;21.50;99.90;;;;;;4976880;28;20050;-85
2022/09/11 12:36:23;;;;;;;3.63;1.00;;;22.00;99.90;;;;;;4988881;28;20490;-84
2022/09/11 12:39:02;;;;;;;1.85;0.90;;;22.60;99.90;;;;;;4992966;28;20281;-85
2022/09/11 12:41:30;;;;;;;2.25;1.20;;;22.70;99.90;;;;;;4976946;28;20101;-84
2022/09/11 12:43:56;;;;;;;1.48;0.85;;;22.70;99.90;;;;;;5000032;28;20472;-85
2022/09/11 12:46:25;;;;;;;2.90;1.15;;;22.40;99.90;;;;;;4977389;28;20050;-84
2022/09/11 12:48:58;;;;;;;1.90;0.98;;;22.20;99.90;;;;;;4976675;28;20150;-85
2022/09/11 12:51:35;;;;;;;2.58;0.90;;;22.10;99.90;;;;;;5007042;28;20026;-84
2022/09/11 12:54:03;;;;;;;1.95;0.98;;;21.80;99.90;;;;;;4991488;28;20027;-85
2022/09/11 12:56:33;;;;;;;2.20;1.10;;;21.50;99.90;;;;;;4984264;28;20018;-85
2022/09/11 12:59:08;;;;;;;2.33;1.00;;;21.40;99.90;;;;;;4994145;28;20398;-85
2022/09/11 13:01:44;;;;;;;2.35;1.10;;;21.30;99.90;;;;;;4979869;28;20106;-85
2022/09/11 13:04:10;;;;;;;3.45;1.70;;;21.10;99.90;;;;;;4992268;28;20057;-84
2022/09/11 13:06:46;;;;;;;4.20;1.67;;;20.80;99.90;;;;;;4993548;28;20064;-85
2022/09/11 13:09:20;;;;;;;3.42;1.45;;;20.60;99.90;;;;;;4993873;28;20073;-85
2022/09/11 13:11:51;;;;;;;2.80;1.00;;;20.60;99.90;;;;;;4995972;28;20415;-85
2022/09/11 13:14:26;;;;;;;2.70;1.60;;;20.60;99.90;;;;;;4991494;28;20366;-84
2022/09/11 13:16:56;;;;;;;4.15;1.70;;;20.60;99.90;;;;;;4993167;28;20058;-85
2022/09/11 13:19:22;;;;;;;3.38;1.48;;;20.50;99.90;;;;;;4993250;28;20108;-85
2022/09/11 13:21:53;;;;;;;3.33;1.48;;;20.60;99.90;;;;;;4997960;28;20026;-85
2022/09/11 13:24:32;;;;;;;3.15;1.50;;;20.90;99.90;;;;;;4994252;28;20025;-84
2022/09/11 13:27:04;;;;;;;2.65;1.20;;;21.50;99.90;;;;;;4995370;28;20037;-85
2022/09/11 13:29:32;;;;;;;4.03;1.50;;;21.60;99.90;;;;;;4995254;28;20077;-84
2022/09/11 13:32:04;;;;;;;3.45;1.20;;;21.60;99.90;;;;;;4992723;28;20030;-85
2022/09/11 13:34:30;;;;;;;;;;;21.70;99.90;;;;;;4995806;28;20110;-84
2022/09/11 13:36:56;;;;;;;2.78;1.50;;;21.90;99.90;;;;;;4995086;28;20356;-85
2022/09/11 13:39:24;;;;;;;2.28;1.10;;;21.90;99.90;;;;;;5007980;28;20798;-85
2022/09/11 13:42:01;;;;;;;2.58;1.20;;;22.00;99.90;;;;;;4994725;28;20081;-85
2022/09/11 13:44:53;;;;;;;4.53;1.77;;;22.10;99.90;;;;;;4993789;28;20019;-85
2022/09/11 13:47:20;;;;;;;3.25;1.20;;;22.10;99.90;;;;;;4985842;28;20038;-85
2022/09/11 13:49:47;;;;;;;2.30;1.20;;;21.80;99.90;;;;;;4990961;28;20022;-85
2022/09/11 13:52:14;;;;;;;3.53;1.65;;;21.70;99.90;;;;;;4994366;28;20098;-85
2022/09/11 13:54:45;;;;;;;3.15;1.40;;;21.60;99.90;;;;;;4993412;28;20117;-86
2022/09/11 13:57:14;;;;;;;2.60;1.17;;;21.70;99.90;;;;;;4991194;28;20026;-85
2022/09/11 13:59:47;;;;;;;4.55;1.35;;;21.80;99.90;;;;;;4991954;28;20080;-85
2022/09/11 14:02:36;;;;;;;3.08;1.45;;;21.70;99.90;;;;;;4983779;28;20044;-85